Time,TemperatureF,DewpointF,PressureIn,WindDirection,WindDirectionDegrees,WindSpeedMPH,WindSpeedGustMPH,Humidity,HourlyPrecipIn,Conditions,Clouds,dailyrainin,SoftwareType,DateUTC
2013-06-03 00:01:00,65.8,63.5,29.83,WNW,294,0.0,0.0,92,0.00,,,0.00,meteohub,2013-06-03 04:01:00,
2013-06-03 00:02:00,65.8,63.1,29.83,WNW,294,0.0,0.0,91,0.00,,,0.00,meteohub,2013-06-03 04:02:00,
2013-06-03 00:07:00,65.8,63.1,29.83,WNW,294,0.0,0.0,91,0.00,,,0.00,meteohub,2013-06-03 04:07:00,
2013-06-03 00:12:00,65.8,63.5,29.83,WNW,294,0.0,0.0,92,0.00,,,0.00,meteohub,2013-06-03 04:12:00,
2013-06-03 00:18:00,65.8,63.1,29.83,WNW,294,0.0,0.0,91,0.00,,,0.00,meteohub,2013-06-03 04:18:00,
2013-06-03 00:23:00,65.8,63.1,29.83,WNW,294,0.0,0.0,91,0.00,,,0.00,meteohub,2013-06-03 04:23:00,
2013-06-03 00:28:00,65.8,63.1,29.83,WNW,294,0.0,0.0,91,0.00,,,0.00,meteohub,2013-06-03 04:28:00,
2013-06-03 00:33:00,65.8,63.5,29.83,WNW,294,0.0,0.0,92,0.00,,,0.00,meteohub,2013-06-03 04:33:00,
2013-06-03 00:38:00,65.8,63.1,29.83,WNW,294,0.0,0.0,91,0.00,,,0.00,meteohub,2013-06-03 04:38:00,
2013-06-03 00:43:00,65.8,63.5,29.83,WNW,294,0.0,0.0,92,0.00,,,0.00,meteohub,2013-06-03 04:43:00,
2013-06-03 00:48:00,65.8,63.5,29.83,WNW,294,0.0,0.0,92,0.00,,,0.00,meteohub,2013-06-03 04:48:00,
2013-06-03 00:54:00,65.8,63.5,29.83,WNW,294,0.0,0.0,92,0.00,,,0.00,meteohub,2013-06-03 04:54:00,
2013-06-03 00:59:00,65.8,63.5,29.83,WNW,294,0.0,0.0,92,0.00,,,0.00,meteohub,2013-06-03 04:59:00,
2013-06-03 01:04:00,65.7,63.3,29.82,WNW,294,0.0,0.0,92,0.00,,,0.00,meteohub,2013-06-03 05:04:00,
2013-06-03 01:09:00,65.7,63.3,29.82,WNW,294,0.0,0.0,92,0.00,,,0.00,meteohub,2013-06-03 05:09:00,
2013-06-03 01:14:00,65.7,63.3,29.82,WNW,294,0.0,0.0,92,0.00,,,0.00,meteohub,2013-06-03 05:14:00,
2013-06-03 01:19:00,65.7,63.5,29.82,WNW,294,0.0,0.0,93,0.00,,,0.00,meteohub,2013-06-03 05:19:00,
2013-06-03 01:24:00,65.7,63.5,29.83,WNW,294,0.0,0.0,93,0.00,,,0.00,meteohub,2013-06-03 05:24:00,
2013-06-03 01:29:00,65.7,63.5,29.83,WNW,294,0.0,0.0,93,0.00,,,0.00,meteohub,2013-06-03 05:29:00,
2013-06-03 01:34:00,65.5,63.3,29.83,WNW,294,0.0,0.0,93,0.00,,,0.00,meteohub,2013-06-03 05:34:00,
2013-06-03 01:39:00,65.5,63.3,29.83,WNW,294,0.0,0.0,93,0.00,,,0.00,meteohub,2013-06-03 05:39:00,
2013-06-03 01:44:00,65.5,63.7,29.82,WNW,294,0.0,0.0,94,0.00,,,0.00,meteohub,2013-06-03 05:44:00,
2013-06-03 01:49:00,65.1,63.3,29.82,WNW,294,0.0,0.0,94,0.00,,,0.00,meteohub,2013-06-03 05:49:00,
2013-06-03 01:54:00,65.1,63.3,29.83,WNW,294,0.0,0.0,94,0.00,,,0.00,meteohub,2013-06-03 05:54:00,
2013-06-03 01:59:00,65.1,63.3,29.82,WNW,294,0.0,0.0,94,0.00,,,0.00,meteohub,2013-06-03 05:59:00,
2013-06-03 02:05:00,65.1,63.3,29.82,WNW,294,0.0,0.0,94,0.00,,,0.00,meteohub,2013-06-03 06:05:00,
2013-06-03 02:10:00,64.9,63.1,29.81,WNW,294,0.0,0.0,94,0.00,,,0.00,meteohub,2013-06-03 06:10:00,
2013-06-03 02:15:00,64.9,63.1,29.81,WNW,294,0.0,0.0,94,0.00,,,0.00,meteohub,2013-06-03 06:15:00,
2013-06-03 02:20:00,64.9,63.1,29.81,WNW,294,0.0,0.0,94,0.00,,,0.00,meteohub,2013-06-03 06:20:00,
2013-06-03 02:25:00,64.8,63.3,29.81,WNW,294,0.0,0.0,95,0.00,,,0.00,meteohub,2013-06-03 06:25:00,
2013-06-03 02:30:00,64.8,63.3,29.81,WNW,294,0.0,0.0,95,0.00,,,0.00,meteohub,2013-06-03 06:30:00,
2013-06-03 02:35:00,64.8,63.0,29.81,WNW,294,0.0,0.0,94,0.00,,,0.00,meteohub,2013-06-03 06:35:00,
2013-06-03 02:40:00,64.8,63.3,29.81,WNW,294,0.0,0.0,95,0.00,,,0.00,meteohub,2013-06-03 06:40:00,
2013-06-03 02:45:00,64.6,63.1,29.80,WNW,294,0.0,0.0,95,0.00,,,0.00,meteohub,2013-06-03 06:45:00,
2013-06-03 02:50:00,64.6,63.1,29.80,WNW,294,0.0,0.0,95,0.00,,,0.00,meteohub,2013-06-03 06:50:00,
2013-06-03 02:55:00,64.6,63.1,29.80,WNW,294,0.0,0.0,95,0.00,,,0.00,meteohub,2013-06-03 06:55:00,
2013-06-03 03:00:00,64.2,62.8,29.80,WNW,294,0.0,0.0,95,0.00,,,0.00,meteohub,2013-06-03 07:00:00,
2013-06-03 03:05:00,64.2,62.8,29.80,WNW,294,0.0,0.0,95,0.00,,,0.00,meteohub,2013-06-03 07:05:00,
2013-06-03 03:11:00,64.2,62.8,29.81,WNW,294,0.0,0.0,95,0.00,,,0.00,meteohub,2013-06-03 07:11:00,
2013-06-03 03:16:00,64.0,62.6,29.81,WNW,294,0.0,0.0,95,0.00,,,0.00,meteohub,2013-06-03 07:16:00,
2013-06-03 03:21:00,64.0,63.0,29.81,WNW,294,0.0,0.0,96,0.00,,,0.00,meteohub,2013-06-03 07:21:00,
2013-06-03 03:26:00,64.0,63.0,29.81,WNW,294,0.0,0.0,96,0.00,,,0.00,meteohub,2013-06-03 07:26:00,
2013-06-03 03:31:00,64.0,63.0,29.81,WNW,294,0.0,0.0,96,0.00,,,0.00,meteohub,2013-06-03 07:31:00,
2013-06-03 03:37:00,64.0,63.0,29.82,WNW,294,0.0,0.0,96,0.00,,,0.00,meteohub,2013-06-03 07:37:00,
2013-06-03 03:42:00,64.0,63.0,29.81,WNW,294,0.0,0.0,96,0.00,,,0.00,meteohub,2013-06-03 07:42:00,
2013-06-03 03:47:00,64.0,63.0,29.81,WNW,294,0.0,0.0,96,0.00,,,0.00,meteohub,2013-06-03 07:47:00,
2013-06-03 03:52:00,64.0,63.0,29.81,WNW,294,0.0,0.0,96,0.00,,,0.00,meteohub,2013-06-03 07:52:00,
2013-06-03 03:57:00,64.0,63.0,29.81,WNW,294,0.0,0.0,96,0.00,,,0.00,meteohub,2013-06-03 07:57:00,
2013-06-03 04:02:00,64.0,63.0,29.81,WNW,294,0.0,0.0,96,0.00,,,0.00,meteohub,2013-06-03 08:02:00,
2013-06-03 04:07:00,64.0,63.0,29.81,WNW,294,0.0,0.0,96,0.00,,,0.00,meteohub,2013-06-03 08:07:00,
2013-06-03 04:12:00,64.2,63.1,29.81,WNW,294,0.0,0.0,96,0.00,,,0.00,meteohub,2013-06-03 08:12:00,
2013-06-03 04:17:00,64.2,63.1,29.81,WNW,294,0.0,0.0,96,0.00,,,0.00,meteohub,2013-06-03 08:17:00,
2013-06-03 04:22:00,64.2,63.1,29.81,WNW,294,0.0,0.0,96,0.00,,,0.00,meteohub,2013-06-03 08:22:00,
2013-06-03 04:27:00,64.2,63.1,29.81,WNW,294,0.0,0.0,96,0.00,,,0.00,meteohub,2013-06-03 08:27:00,
2013-06-03 04:32:00,64.2,63.1,29.82,WNW,294,0.0,0.0,96,0.00,,,0.00,meteohub,2013-06-03 08:32:00,
2013-06-03 04:37:00,64.2,63.1,29.82,WNW,294,0.0,0.0,96,0.00,,,0.00,meteohub,2013-06-03 08:37:00,
2013-06-03 04:42:00,64.2,63.3,29.82,WNW,294,0.0,0.0,97,0.00,,,0.00,meteohub,2013-06-03 08:42:00,
2013-06-03 04:47:00,64.2,63.3,29.81,WNW,294,0.0,0.0,97,0.00,,,0.00,meteohub,2013-06-03 08:47:00,
2013-06-03 04:52:00,64.4,63.5,29.81,WNW,294,0.0,0.0,97,0.00,,,0.00,meteohub,2013-06-03 08:52:00,
2013-06-03 04:57:00,64.4,63.5,29.81,WNW,294,0.0,0.0,97,0.00,,,0.00,meteohub,2013-06-03 08:57:00,
2013-06-03 05:03:00,64.4,63.5,29.81,WNW,294,0.0,0.0,97,0.00,,,0.00,meteohub,2013-06-03 09:03:00,
2013-06-03 05:08:00,64.6,63.7,29.82,WNW,294,0.0,0.0,97,0.00,,,0.00,meteohub,2013-06-03 09:08:00,
2013-06-03 05:13:00,64.6,63.7,29.82,WNW,294,0.0,0.0,97,0.00,,,0.00,meteohub,2013-06-03 09:13:00,
2013-06-03 05:18:00,64.6,63.7,29.82,WNW,294,0.0,0.0,97,0.00,,,0.00,meteohub,2013-06-03 09:18:00,
2013-06-03 05:23:00,64.6,63.7,29.82,WNW,294,0.0,0.0,97,0.00,,,0.00,meteohub,2013-06-03 09:23:00,
2013-06-03 05:28:00,64.6,63.7,29.82,WNW,294,0.0,0.0,97,0.00,,,0.00,meteohub,2013-06-03 09:28:00,
2013-06-03 05:33:00,64.6,63.7,29.82,WNW,294,0.0,0.0,97,0.00,,,0.00,meteohub,2013-06-03 09:33:00,
2013-06-03 05:38:00,64.6,63.7,29.82,WNW,294,0.0,0.0,97,0.00,,,0.00,meteohub,2013-06-03 09:38:00,
2013-06-03 05:43:00,64.6,64.0,29.82,WNW,294,0.0,0.0,98,0.00,,,0.00,meteohub,2013-06-03 09:43:00,
2013-06-03 05:48:00,64.6,63.7,29.82,WNW,294,0.0,0.0,97,0.00,,,0.00,meteohub,2013-06-03 09:48:00,
2013-06-03 05:54:00,64.6,64.0,29.82,WNW,294,0.0,0.0,98,0.00,,,0.00,meteohub,2013-06-03 09:54:00,
2013-06-03 05:59:00,64.6,64.0,29.81,WNW,294,0.0,0.0,98,0.00,,,0.00,meteohub,2013-06-03 09:59:00,
2013-06-03 06:04:00,64.6,64.0,29.81,WNW,294,0.0,0.0,98,0.00,,,0.00,meteohub,2013-06-03 10:04:00,
2013-06-03 06:09:00,64.6,63.7,29.82,WNW,294,0.0,0.0,97,0.00,,,0.00,meteohub,2013-06-03 10:09:00,
2013-06-03 06:14:00,64.6,64.0,29.83,WNW,294,0.0,0.0,98,0.00,,,0.00,meteohub,2013-06-03 10:14:00,
2013-06-03 06:19:00,64.6,64.0,29.84,WNW,294,0.0,0.0,98,0.00,,,0.00,meteohub,2013-06-03 10:19:00,
2013-06-03 06:24:00,64.8,64.2,29.84,WNW,294,0.0,0.0,98,0.00,,,0.00,meteohub,2013-06-03 10:24:00,
2013-06-03 06:29:00,64.6,64.0,29.84,WNW,294,0.0,0.0,98,0.00,,,0.00,meteohub,2013-06-03 10:29:00,
2013-06-03 06:34:00,64.6,63.7,29.84,WNW,294,0.0,0.0,97,0.00,,,0.00,meteohub,2013-06-03 10:34:00,
2013-06-03 06:39:00,64.2,63.3,29.84,WNW,294,0.0,0.0,97,0.00,,,0.00,meteohub,2013-06-03 10:39:00,
2013-06-03 06:44:00,64.0,63.1,29.84,WNW,294,0.0,0.0,97,0.00,,,0.00,meteohub,2013-06-03 10:44:00,
2013-06-03 06:49:00,63.9,63.0,29.84,WNW,294,0.0,0.0,97,0.00,,,0.00,meteohub,2013-06-03 10:49:00,
2013-06-03 06:55:00,63.9,63.0,29.83,WNW,294,0.0,0.0,97,0.00,,,0.00,meteohub,2013-06-03 10:55:00,
2013-06-03 07:00:00,63.7,62.8,29.83,WNW,294,0.0,0.0,97,0.00,,,0.00,meteohub,2013-06-03 11:00:00,
2013-06-03 07:05:00,63.7,63.1,29.83,WNW,294,0.0,0.0,98,0.00,,,0.00,meteohub,2013-06-03 11:05:00,
2013-06-03 07:10:00,63.7,63.1,29.84,WNW,294,0.0,0.0,98,0.00,,,0.00,meteohub,2013-06-03 11:10:00,
2013-06-03 07:15:00,63.7,63.1,29.83,WNW,294,0.0,0.0,98,0.00,,,0.00,meteohub,2013-06-03 11:15:00,
2013-06-03 07:20:00,63.7,63.1,29.84,WNW,294,0.0,0.0,98,0.00,,,0.00,meteohub,2013-06-03 11:20:00,
2013-06-03 07:25:00,63.9,63.3,29.84,WNW,294,0.0,0.0,98,0.00,,,0.00,meteohub,2013-06-03 11:25:00,
2013-06-03 07:30:00,63.9,63.3,29.84,WNW,294,0.0,0.0,98,0.00,,,0.00,meteohub,2013-06-03 11:30:00,
2013-06-03 07:35:00,63.9,63.3,29.83,WNW,294,0.0,0.0,98,0.00,,,0.00,meteohub,2013-06-03 11:35:00,
2013-06-03 07:40:00,63.9,63.3,29.83,WNW,294,0.0,0.0,98,0.00,,,0.00,meteohub,2013-06-03 11:40:00,
2013-06-03 07:45:00,63.9,63.3,29.83,WNW,294,0.0,0.0,98,0.00,,,0.00,meteohub,2013-06-03 11:45:00,
2013-06-03 07:50:00,64.0,63.5,29.83,WNW,294,0.0,0.0,98,0.00,,,0.00,meteohub,2013-06-03 11:50:00,
2013-06-03 07:55:00,64.0,63.5,29.83,WNW,294,0.0,0.0,98,0.00,,,0.00,meteohub,2013-06-03 11:55:00,
2013-06-03 08:00:00,64.0,63.5,29.83,WNW,294,0.0,0.0,98,0.00,,,0.00,meteohub,2013-06-03 12:00:00,
2013-06-03 08:06:00,64.2,63.7,29.84,WNW,294,0.0,0.0,98,0.00,,,0.00,meteohub,2013-06-03 12:06:00,
2013-06-03 08:11:00,64.4,63.9,29.83,WNW,294,0.0,0.0,98,0.00,,,0.00,meteohub,2013-06-03 12:11:00,
2013-06-03 08:16:00,64.2,63.7,29.83,WNW,294,0.0,0.0,98,0.00,,,0.00,meteohub,2013-06-03 12:16:00,
2013-06-03 08:21:00,64.4,63.9,29.83,WNW,294,0.0,0.0,98,0.00,,,0.00,meteohub,2013-06-03 12:21:00,
2013-06-03 08:27:00,64.6,64.0,29.83,WNW,294,0.0,0.0,98,0.00,,,0.00,meteohub,2013-06-03 12:27:00,
2013-06-03 08:32:00,64.6,64.0,29.83,WNW,294,0.0,0.0,98,0.00,,,0.00,meteohub,2013-06-03 12:32:00,
2013-06-03 08:37:00,64.8,64.2,29.83,WNW,294,0.0,0.0,98,0.00,,,0.00,meteohub,2013-06-03 12:37:00,
2013-06-03 08:42:00,64.9,64.4,29.83,WNW,294,0.0,0.0,98,0.00,,,0.00,meteohub,2013-06-03 12:42:00,
2013-06-03 08:47:00,64.9,64.4,29.83,WNW,294,0.0,0.0,98,0.00,,,0.00,meteohub,2013-06-03 12:47:00,
2013-06-03 08:52:00,65.1,64.6,29.83,WNW,294,0.0,0.0,98,0.00,,,0.00,meteohub,2013-06-03 12:52:00,
2013-06-03 08:57:00,65.1,64.6,29.83,WNW,294,0.0,0.0,98,0.00,,,0.00,meteohub,2013-06-03 12:57:00,
2013-06-03 09:02:00,65.1,64.6,29.83,WNW,294,0.0,0.0,98,0.00,,,0.00,meteohub,2013-06-03 13:02:00,
2013-06-03 09:07:00,65.3,64.8,29.83,WNW,294,0.0,0.0,98,0.00,,,0.00,meteohub,2013-06-03 13:07:00,
2013-06-03 09:12:00,65.5,64.9,29.83,WNW,294,0.0,0.0,98,0.00,,,0.00,meteohub,2013-06-03 13:12:00,
2013-06-03 09:17:00,65.7,65.1,29.83,WNW,294,0.0,0.0,98,0.00,,,0.00,meteohub,2013-06-03 13:17:00,
2013-06-03 09:22:00,65.5,64.9,29.83,WNW,294,0.0,0.0,98,0.00,,,0.00,meteohub,2013-06-03 13:22:00,
2013-06-03 09:27:00,65.5,64.9,29.83,WNW,294,0.0,0.0,98,0.00,,,0.00,meteohub,2013-06-03 13:27:00,
2013-06-03 09:32:00,65.5,64.9,29.83,WNW,294,0.0,0.0,98,0.00,,,0.00,meteohub,2013-06-03 13:32:00,
2013-06-03 09:37:00,65.5,64.9,29.83,WNW,294,0.0,0.0,98,0.00,,,0.00,meteohub,2013-06-03 13:37:00,
2013-06-03 09:42:00,65.5,64.9,29.83,WNW,294,0.0,0.0,98,0.00,,,0.00,meteohub,2013-06-03 13:42:00,
2013-06-03 09:47:00,65.5,64.9,29.83,WNW,294,0.0,0.0,98,0.00,,,0.00,meteohub,2013-06-03 13:47:00,
2013-06-03 09:52:00,65.5,64.9,29.84,WNW,294,0.0,0.0,98,0.00,,,0.00,meteohub,2013-06-03 13:52:00,
2013-06-03 09:57:00,65.5,64.9,29.84,WNW,294,0.0,0.0,98,0.00,,,0.00,meteohub,2013-06-03 13:57:00,
2013-06-03 10:02:00,65.5,64.9,29.85,WNW,294,0.0,0.0,98,0.00,,,0.00,meteohub,2013-06-03 14:02:00,
2013-06-03 10:07:00,65.5,64.9,29.84,WNW,294,0.0,0.0,98,0.00,,,0.00,meteohub,2013-06-03 14:07:00,
2013-06-03 10:12:00,65.5,64.9,29.84,WNW,294,0.0,0.0,98,0.00,,,0.00,meteohub,2013-06-03 14:12:00,
2013-06-03 10:17:00,65.3,64.8,29.84,WNW,294,0.0,0.0,98,0.00,,,0.00,meteohub,2013-06-03 14:17:00,
2013-06-03 10:22:00,65.5,64.9,29.85,WNW,294,0.0,0.0,98,0.00,,,0.00,meteohub,2013-06-03 14:22:00,
2013-06-03 10:27:00,65.3,64.8,29.85,WNW,294,0.0,0.0,98,0.00,,,0.00,meteohub,2013-06-03 14:27:00,
2013-06-03 10:32:00,65.3,64.8,29.85,WNW,294,0.0,0.0,98,0.00,,,0.00,meteohub,2013-06-03 14:32:00,
2013-06-03 10:38:00,65.3,64.8,29.84,WNW,294,0.0,0.0,98,0.00,,,0.00,meteohub,2013-06-03 14:38:00,
2013-06-03 10:43:00,65.3,64.8,29.84,WNW,294,0.0,0.0,98,0.00,,,0.00,meteohub,2013-06-03 14:43:00,
2013-06-03 10:48:00,65.3,64.9,29.84,WNW,294,0.0,0.0,99,0.00,,,0.00,meteohub,2013-06-03 14:48:00,
2013-06-03 10:53:00,65.5,65.1,29.84,WNW,294,0.0,0.0,99,0.00,,,0.00,meteohub,2013-06-03 14:53:00,
2013-06-03 10:58:00,65.5,65.1,29.84,WNW,294,0.0,0.0,99,0.00,,,0.00,meteohub,2013-06-03 14:58:00,
2013-06-03 11:03:00,65.5,65.1,29.84,WNW,294,0.0,0.0,99,0.00,,,0.00,meteohub,2013-06-03 15:03:00,
2013-06-03 11:08:00,65.7,65.3,29.84,WNW,294,0.0,0.0,99,0.00,,,0.00,meteohub,2013-06-03 15:08:00,
2013-06-03 11:13:00,65.7,65.3,29.84,WNW,294,0.0,0.0,99,0.00,,,0.00,meteohub,2013-06-03 15:13:00,
2013-06-03 11:19:00,65.8,65.5,29.84,WNW,294,0.0,0.0,99,0.00,,,0.00,meteohub,2013-06-03 15:19:00,
2013-06-03 11:24:00,65.8,65.5,29.84,WNW,294,0.0,0.0,99,0.00,,,0.00,meteohub,2013-06-03 15:24:00,
2013-06-03 11:29:00,65.8,65.5,29.84,WNW,294,0.0,0.0,99,0.00,,,0.00,meteohub,2013-06-03 15:29:00,
2013-06-03 11:34:00,66.0,65.7,29.84,WNW,294,0.0,0.0,99,0.00,,,0.00,meteohub,2013-06-03 15:34:00,
2013-06-03 11:39:00,66.4,66.0,29.84,WNW,294,0.0,0.0,99,0.00,,,0.00,meteohub,2013-06-03 15:39:00,
2013-06-03 11:45:00,66.6,66.2,29.84,WNW,294,0.0,0.0,99,0.00,,,0.00,meteohub,2013-06-03 15:45:00,
2013-06-03 11:50:00,66.4,66.0,29.84,WNW,294,0.0,0.0,99,0.00,,,0.00,meteohub,2013-06-03 15:50:00,
2013-06-03 11:55:00,66.4,66.0,29.85,WNW,294,0.0,0.0,99,0.00,,,0.00,meteohub,2013-06-03 15:55:00,
2013-06-03 12:00:00,66.2,65.8,29.84,WNW,294,0.0,0.0,99,0.00,,,0.00,meteohub,2013-06-03 16:00:00,
2013-06-03 12:05:00,66.2,65.8,29.84,WNW,294,0.0,0.0,99,0.00,,,0.00,meteohub,2013-06-03 16:05:00,
2013-06-03 12:10:00,66.0,65.7,29.84,WNW,294,0.0,0.0,99,0.00,,,0.00,meteohub,2013-06-03 16:10:00,
2013-06-03 12:15:00,66.4,66.0,29.83,WNW,294,0.0,0.0,99,0.00,,,0.00,meteohub,2013-06-03 16:15:00,
2013-06-03 12:21:00,66.9,66.6,29.83,WNW,294,0.0,0.0,99,0.00,,,0.00,meteohub,2013-06-03 16:21:00,
2013-06-03 12:26:00,67.5,67.1,29.84,WNW,294,0.0,0.0,99,0.00,,,0.00,meteohub,2013-06-03 16:26:00,
2013-06-03 12:31:00,67.8,67.5,29.84,WNW,294,0.0,0.0,99,0.00,,,0.00,meteohub,2013-06-03 16:31:00,
2013-06-03 12:36:00,67.6,67.3,29.84,WNW,294,0.0,0.0,99,0.00,,,0.00,meteohub,2013-06-03 16:36:00,
2013-06-03 12:41:00,67.6,67.1,29.84,WNW,294,0.0,0.0,98,0.00,,,0.00,meteohub,2013-06-03 16:41:00,
2013-06-03 12:47:00,68.0,67.6,29.84,WNW,294,0.0,0.0,99,0.00,,,0.00,meteohub,2013-06-03 16:47:00,
2013-06-03 12:52:00,68.5,68.2,29.84,WNW,294,0.0,0.0,99,0.00,,,0.00,meteohub,2013-06-03 16:52:00,
2013-06-03 12:57:00,68.7,68.2,29.84,WNW,294,0.0,0.0,98,0.00,,,0.00,meteohub,2013-06-03 16:57:00,
2013-06-03 13:02:00,68.9,68.4,29.84,WNW,294,0.0,0.0,98,0.00,,,0.00,meteohub,2013-06-03 17:02:00,
2013-06-03 13:07:00,69.4,68.9,29.83,WNW,294,0.0,0.0,98,0.00,,,0.00,meteohub,2013-06-03 17:07:00,
2013-06-03 13:12:00,70.2,69.6,29.83,WNW,294,0.0,0.0,98,0.00,,,0.00,meteohub,2013-06-03 17:12:00,
2013-06-03 13:17:00,70.3,69.4,29.83,WNW,294,0.0,0.0,97,0.00,,,0.00,meteohub,2013-06-03 17:17:00,
2013-06-03 13:22:00,70.3,67.6,29.83,WNW,294,0.0,0.0,91,0.00,,,0.00,meteohub,2013-06-03 17:22:00,
2013-06-03 13:27:00,70.5,68.7,29.83,WNW,294,0.0,0.0,94,0.00,,,0.00,meteohub,2013-06-03 17:27:00,
2013-06-03 13:32:00,71.2,68.2,29.82,WNW,294,0.0,0.0,90,0.00,,,0.00,meteohub,2013-06-03 17:32:00,
2013-06-03 13:37:00,72.1,69.4,29.82,WNW,294,0.0,0.0,91,0.00,,,0.00,meteohub,2013-06-03 17:37:00,
2013-06-03 13:42:00,72.9,69.8,29.82,WNW,294,0.0,0.0,90,0.00,,,0.00,meteohub,2013-06-03 17:42:00,
2013-06-03 13:48:00,73.0,68.9,29.82,WNW,294,0.0,0.0,87,0.00,,,0.00,meteohub,2013-06-03 17:48:00,
2013-06-03 13:53:00,73.6,70.2,29.81,WNW,294,0.0,0.0,89,0.00,,,0.00,meteohub,2013-06-03 17:53:00,
2013-06-03 13:58:00,73.8,68.4,29.81,WNW,294,0.0,0.0,83,0.00,,,0.00,meteohub,2013-06-03 17:58:00,
2013-06-03 14:03:00,74.1,69.3,29.81,WNW,294,0.0,0.0,85,0.00,,,0.00,meteohub,2013-06-03 18:03:00,
2013-06-03 14:08:00,74.5,68.2,29.81,WNW,294,0.0,0.0,81,0.00,,,0.00,meteohub,2013-06-03 18:08:00,
2013-06-03 14:13:00,74.8,68.5,29.81,WNW,294,0.0,0.0,81,0.00,,,0.00,meteohub,2013-06-03 18:13:00,
2013-06-03 14:18:00,75.2,69.3,29.81,WNW,294,0.0,0.0,82,0.00,,,0.00,meteohub,2013-06-03 18:18:00,
2013-06-03 14:23:00,75.4,68.4,29.81,WNW,294,0.0,0.0,79,0.00,,,0.00,meteohub,2013-06-03 18:23:00,
2013-06-03 14:28:00,75.9,70.7,29.81,WNW,294,0.0,0.0,84,0.00,,,0.00,meteohub,2013-06-03 18:28:00,
2013-06-03 14:34:00,76.6,70.7,29.81,WNW,294,0.0,0.0,82,0.00,,,0.00,meteohub,2013-06-03 18:34:00,
2013-06-03 14:39:00,76.8,68.4,29.81,WNW,294,0.0,0.0,75,0.00,,,0.00,meteohub,2013-06-03 18:39:00,
2013-06-03 14:44:00,76.6,68.5,29.81,WNW,294,0.0,0.0,76,0.00,,,0.00,meteohub,2013-06-03 18:44:00,
2013-06-03 14:49:00,76.8,69.4,29.81,WNW,294,0.0,0.0,78,0.00,,,0.00,meteohub,2013-06-03 18:49:00,
2013-06-03 14:54:00,77.4,69.3,29.81,WNW,294,0.0,0.0,76,0.00,,,0.00,meteohub,2013-06-03 18:54:00,
2013-06-03 14:59:00,77.7,69.1,29.81,WNW,294,0.0,0.0,75,0.00,,,0.00,meteohub,2013-06-03 18:59:00,
2013-06-03 15:04:00,78.3,70.0,29.81,WNW,294,0.0,0.0,76,0.00,,,0.00,meteohub,2013-06-03 19:04:00,
2013-06-03 15:09:00,78.3,70.9,29.82,WNW,294,0.0,0.0,78,0.00,,,0.00,meteohub,2013-06-03 19:09:00,
2013-06-03 15:14:00,78.1,70.7,29.82,WNW,294,0.0,0.0,78,0.00,,,0.00,meteohub,2013-06-03 19:14:00,
2013-06-03 15:19:00,77.2,69.4,29.82,WNW,294,0.0,0.0,77,0.00,,,0.00,meteohub,2013-06-03 19:19:00,
2013-06-03 15:24:00,76.1,69.8,29.82,WNW,294,0.0,0.0,81,0.00,,,0.00,meteohub,2013-06-03 19:24:00,
2013-06-03 15:29:00,75.9,70.7,29.82,WNW,294,0.0,0.0,84,0.00,,,0.00,meteohub,2013-06-03 19:29:00,
2013-06-03 15:34:00,75.7,69.8,29.82,WNW,294,0.0,0.0,82,0.00,,,0.00,meteohub,2013-06-03 19:34:00,
2013-06-03 15:39:00,75.4,69.8,29.81,WNW,294,0.0,0.0,83,0.00,,,0.00,meteohub,2013-06-03 19:39:00,
2013-06-03 15:45:00,74.8,69.3,29.81,WNW,294,0.0,0.0,83,0.00,,,0.00,meteohub,2013-06-03 19:45:00,
2013-06-03 15:50:00,74.7,69.1,29.81,WNW,294,0.0,0.0,83,0.00,,,0.00,meteohub,2013-06-03 19:50:00,
2013-06-03 15:55:00,74.8,70.3,29.81,WNW,294,0.0,0.0,86,0.00,,,0.00,meteohub,2013-06-03 19:55:00,
2013-06-03 16:00:00,74.8,68.9,29.81,WNW,294,0.0,0.0,82,0.00,,,0.00,meteohub,2013-06-03 20:00:00,
2013-06-03 16:05:00,74.5,68.2,29.81,WNW,294,0.0,0.0,81,0.00,,,0.00,meteohub,2013-06-03 20:05:00,
2013-06-03 16:10:00,74.1,68.5,29.81,WNW,294,0.0,0.0,83,0.00,,,0.00,meteohub,2013-06-03 20:10:00,
2013-06-03 16:15:00,74.1,68.9,29.81,WNW,294,0.0,0.0,84,0.00,,,0.00,meteohub,2013-06-03 20:15:00,
2013-06-03 16:20:00,73.9,68.7,29.81,WNW,294,0.0,0.0,84,0.00,,,0.00,meteohub,2013-06-03 20:20:00,
2013-06-03 16:25:00,73.8,68.4,29.81,WNW,294,0.0,0.0,83,0.00,,,0.00,meteohub,2013-06-03 20:25:00,
2013-06-03 16:30:00,73.4,68.0,29.81,WNW,294,0.0,0.0,83,0.00,,,0.00,meteohub,2013-06-03 20:30:00,
2013-06-03 16:35:00,72.7,67.3,29.81,WNW,294,0.0,0.0,83,0.00,,,0.00,meteohub,2013-06-03 20:35:00,
2013-06-03 16:40:00,72.1,67.5,29.81,WNW,294,0.0,0.0,85,0.00,,,0.00,meteohub,2013-06-03 20:40:00,
2013-06-03 16:45:00,72.0,67.5,29.81,WNW,294,0.0,0.0,86,0.00,,,0.00,meteohub,2013-06-03 20:45:00,
2013-06-03 16:50:00,72.0,67.8,29.81,WNW,294,0.0,0.0,87,0.00,,,0.00,meteohub,2013-06-03 20:50:00,
2013-06-03 16:55:00,72.0,67.5,29.81,WNW,294,0.0,0.0,86,0.00,,,0.00,meteohub,2013-06-03 20:55:00,
2013-06-03 17:01:00,72.0,66.9,29.81,WNW,294,0.0,0.0,84,0.00,,,0.00,meteohub,2013-06-03 21:01:00,
2013-06-03 17:06:00,72.0,67.8,29.80,WNW,294,0.0,0.0,87,0.00,,,0.00,meteohub,2013-06-03 21:06:00,
2013-06-03 17:11:00,72.0,67.3,29.80,WNW,294,0.0,0.0,85,0.00,,,0.00,meteohub,2013-06-03 21:11:00,
2013-06-03 17:16:00,72.1,67.6,29.80,WNW,294,0.0,0.0,86,0.00,,,0.00,meteohub,2013-06-03 21:16:00,
2013-06-03 17:22:00,72.1,66.7,29.80,WNW,294,0.0,0.0,83,0.00,,,0.00,meteohub,2013-06-03 21:22:00,
2013-06-03 17:27:00,71.8,67.1,29.80,WNW,294,0.0,0.0,85,0.00,,,0.00,meteohub,2013-06-03 21:27:00,
2013-06-03 17:32:00,71.8,67.1,29.80,WNW,294,0.0,0.0,85,0.00,,,0.00,meteohub,2013-06-03 21:32:00,
2013-06-03 17:37:00,72.0,67.5,29.80,WNW,294,0.0,0.0,86,0.00,,,0.00,meteohub,2013-06-03 21:37:00,
2013-06-03 17:42:00,72.0,66.9,29.80,WNW,294,0.0,0.0,84,0.00,,,0.00,meteohub,2013-06-03 21:42:00,
2013-06-03 17:47:00,72.0,66.9,29.80,WNW,294,0.0,0.0,84,0.00,,,0.00,meteohub,2013-06-03 21:47:00,
2013-06-03 17:52:00,72.0,67.5,29.79,WNW,294,0.0,0.0,86,0.00,,,0.00,meteohub,2013-06-03 21:52:00,
2013-06-03 17:57:00,72.1,67.5,29.79,WNW,294,0.0,0.0,85,0.00,,,0.00,meteohub,2013-06-03 21:57:00,
2013-06-03 18:02:00,72.1,67.5,29.79,WNW,294,0.0,0.0,85,0.00,,,0.00,meteohub,2013-06-03 22:02:00,
2013-06-03 18:07:00,72.1,67.1,29.79,WNW,294,0.0,0.0,84,0.00,,,0.00,meteohub,2013-06-03 22:07:00,
2013-06-03 18:12:00,72.1,67.6,29.79,WNW,294,0.0,0.0,86,0.00,,,0.00,meteohub,2013-06-03 22:12:00,
2013-06-03 18:17:00,72.0,66.6,29.80,WNW,294,0.0,0.0,83,0.00,,,0.00,meteohub,2013-06-03 22:17:00,
2013-06-03 18:22:00,71.8,67.1,29.80,WNW,294,0.0,0.0,85,0.00,,,0.00,meteohub,2013-06-03 22:22:00,
2013-06-03 18:27:00,71.8,67.1,29.80,WNW,294,0.0,0.0,85,0.00,,,0.00,meteohub,2013-06-03 22:27:00,
2013-06-03 18:32:00,71.6,66.9,29.80,WNW,294,0.0,0.0,85,0.00,,,0.00,meteohub,2013-06-03 22:32:00,
2013-06-03 18:37:00,71.6,67.1,29.79,WNW,294,0.0,0.0,86,0.00,,,0.00,meteohub,2013-06-03 22:37:00,
2013-06-03 18:42:00,71.6,67.1,29.80,WNW,294,0.0,0.0,86,0.00,,,0.00,meteohub,2013-06-03 22:42:00,
2013-06-03 18:47:00,71.6,67.5,29.80,WNW,294,0.0,0.0,87,0.00,,,0.00,meteohub,2013-06-03 22:47:00,
2013-06-03 18:52:00,71.8,68.0,29.80,WNW,294,0.0,0.0,88,0.00,,,0.00,meteohub,2013-06-03 22:52:00,
2013-06-03 18:57:00,71.8,68.0,29.80,WNW,294,0.0,0.0,88,0.00,,,0.00,meteohub,2013-06-03 22:57:00,
2013-06-03 19:02:00,71.6,67.8,29.80,WNW,294,0.0,0.0,88,0.00,,,0.00,meteohub,2013-06-03 23:02:00,
2013-06-03 19:07:00,71.6,67.8,29.80,WNW,294,0.0,0.0,88,0.00,,,0.00,meteohub,2013-06-03 23:07:00,
2013-06-03 19:12:00,71.6,67.8,29.80,WNW,294,0.0,0.0,88,0.00,,,0.00,meteohub,2013-06-03 23:12:00,
2013-06-03 19:17:00,71.4,68.0,29.80,WNW,294,0.0,0.0,89,0.00,,,0.00,meteohub,2013-06-03 23:17:00,
2013-06-03 19:22:00,71.6,68.2,29.81,WNW,294,0.0,0.0,89,0.00,,,0.00,meteohub,2013-06-03 23:22:00,
2013-06-03 19:27:00,71.6,68.2,29.81,WNW,294,0.0,0.0,89,0.00,,,0.00,meteohub,2013-06-03 23:27:00,
2013-06-03 19:32:00,71.4,68.0,29.81,WNW,294,0.0,0.0,89,0.00,,,0.00,meteohub,2013-06-03 23:32:00,
2013-06-03 19:37:00,71.4,68.0,29.81,WNW,294,0.0,0.0,89,0.00,,,0.00,meteohub,2013-06-03 23:37:00,
2013-06-03 19:42:00,71.2,67.8,29.81,WNW,294,0.0,0.0,89,0.00,,,0.00,meteohub,2013-06-03 23:42:00,
2013-06-03 19:48:00,71.1,67.6,29.81,WNW,294,0.0,0.0,89,0.00,,,0.00,meteohub,2013-06-03 23:48:00,
2013-06-03 19:53:00,70.9,67.8,29.81,WNW,294,0.0,0.0,90,0.00,,,0.00,meteohub,2013-06-03 23:53:00,
2013-06-03 19:58:00,70.9,67.8,29.81,WNW,294,0.0,0.0,90,0.00,,,0.00,meteohub,2013-06-03 23:58:00,
2013-06-03 20:03:00,70.5,67.8,29.81,WNW,294,0.0,0.0,91,0.00,,,0.00,meteohub,2013-06-04 00:03:00,
2013-06-03 20:08:00,70.5,67.8,29.81,WNW,294,0.0,0.0,91,0.00,,,0.00,meteohub,2013-06-04 00:08:00,
2013-06-03 20:13:00,70.3,67.3,29.81,WNW,294,0.0,0.0,90,0.00,,,0.00,meteohub,2013-06-04 00:13:00,
2013-06-03 20:18:00,70.2,67.5,29.81,WNW,294,0.0,0.0,91,0.00,,,0.00,meteohub,2013-06-04 00:18:00,
2013-06-03 20:23:00,69.8,67.1,29.81,WNW,294,0.0,0.0,91,0.00,,,0.00,meteohub,2013-06-04 00:23:00,
2013-06-03 20:28:00,69.4,67.1,29.81,WNW,294,0.0,0.0,92,0.00,,,0.00,meteohub,2013-06-04 00:28:00,
2013-06-03 20:34:00,69.1,66.7,29.81,WNW,294,0.0,0.0,92,0.00,,,0.00,meteohub,2013-06-04 00:34:00,
2013-06-03 20:39:00,68.7,66.4,29.81,WNW,294,0.0,0.0,92,0.00,,,0.00,meteohub,2013-06-04 00:39:00,
2013-06-03 20:44:00,68.5,66.4,29.81,WNW,294,0.0,0.0,93,0.00,,,0.00,meteohub,2013-06-04 00:44:00,
2013-06-03 20:49:00,68.2,66.0,29.81,WNW,294,0.0,0.0,93,0.00,,,0.00,meteohub,2013-06-04 00:49:00,
2013-06-03 20:54:00,67.8,66.0,29.81,WNW,294,0.0,0.0,94,0.00,,,0.00,meteohub,2013-06-04 00:54:00,
2013-06-03 20:59:00,67.6,65.5,29.81,WNW,294,0.0,0.0,93,0.00,,,0.00,meteohub,2013-06-04 00:59:00,
2013-06-03 21:04:00,67.6,65.8,29.82,WNW,294,0.0,0.0,94,0.00,,,0.00,meteohub,2013-06-04 01:04:00,
2013-06-03 21:10:00,67.5,65.7,29.82,WNW,294,0.0,0.0,94,0.00,,,0.00,meteohub,2013-06-04 01:10:00,
2013-06-03 21:15:00,67.3,65.5,29.82,WNW,294,0.0,0.0,94,0.00,,,0.00,meteohub,2013-06-04 01:15:00,
2013-06-03 21:20:00,66.9,65.1,29.82,WNW,294,0.0,0.0,94,0.00,,,0.00,meteohub,2013-06-04 01:20:00,
2013-06-03 21:25:00,66.9,65.1,29.82,WNW,294,0.0,0.0,94,0.00,,,0.00,meteohub,2013-06-04 01:25:00,
2013-06-03 21:30:00,66.7,64.9,29.82,WNW,294,0.0,0.0,94,0.00,,,0.00,meteohub,2013-06-04 01:30:00,
2013-06-03 21:35:00,66.6,64.8,29.82,WNW,294,0.0,0.0,94,0.00,,,0.00,meteohub,2013-06-04 01:35:00,
2013-06-03 21:40:00,66.4,64.9,29.83,WNW,294,0.0,0.0,95,0.00,,,0.00,meteohub,2013-06-04 01:40:00,
2013-06-03 21:45:00,66.0,64.6,29.83,WNW,294,0.0,0.0,95,0.00,,,0.00,meteohub,2013-06-04 01:45:00,
2013-06-03 21:50:00,66.0,64.6,29.83,WNW,294,0.0,0.0,95,0.00,,,0.00,meteohub,2013-06-04 01:50:00,
2013-06-03 21:55:00,65.8,64.4,29.83,WNW,294,0.0,0.0,95,0.00,,,0.00,meteohub,2013-06-04 01:55:00,
2013-06-03 22:00:00,65.8,64.6,29.83,WNW,294,0.0,0.0,96,0.00,,,0.00,meteohub,2013-06-04 02:00:00,
2013-06-03 22:05:00,65.7,64.4,29.83,WNW,294,0.0,0.0,96,0.00,,,0.00,meteohub,2013-06-04 02:05:00,
2013-06-03 22:10:00,65.7,64.4,29.83,WNW,294,0.0,0.0,96,0.00,,,0.00,meteohub,2013-06-04 02:10:00,
2013-06-03 22:15:00,65.7,64.4,29.83,WNW,294,0.0,0.0,96,0.00,,,0.00,meteohub,2013-06-04 02:15:00,
2013-06-03 22:21:00,65.7,64.8,29.84,WNW,294,0.0,0.0,97,0.00,,,0.00,meteohub,2013-06-04 02:21:00,
2013-06-03 22:26:00,65.8,64.9,29.83,WNW,294,0.0,0.0,97,0.00,,,0.00,meteohub,2013-06-04 02:26:00,
2013-06-03 22:31:00,66.0,65.1,29.84,WNW,294,0.0,0.0,97,0.00,,,0.00,meteohub,2013-06-04 02:31:00,
2013-06-03 22:36:00,66.4,65.5,29.84,WNW,294,0.0,0.0,97,0.00,,,0.00,meteohub,2013-06-04 02:36:00,
2013-06-03 22:41:00,66.4,65.1,29.84,WNW,294,0.0,0.0,96,0.00,,,0.00,meteohub,2013-06-04 02:41:00,
2013-06-03 22:46:00,66.2,64.9,29.84,WNW,294,0.0,0.0,96,0.00,,,0.00,meteohub,2013-06-04 02:46:00,
2013-06-03 22:51:00,66.0,64.8,29.84,WNW,294,0.0,0.0,96,0.00,,,0.00,meteohub,2013-06-04 02:51:00,
2013-06-03 22:56:00,65.8,64.6,29.84,WNW,294,0.0,0.0,96,0.00,,,0.00,meteohub,2013-06-04 02:56:00,
2013-06-03 23:01:00,65.7,64.2,29.83,WNW,294,0.0,0.0,95,0.00,,,0.00,meteohub,2013-06-04 03:01:00,
2013-06-03 23:06:00,65.3,63.1,29.84,WNW,294,0.0,0.0,93,0.00,,,0.00,meteohub,2013-06-04 03:06:00,
2013-06-03 23:11:00,64.9,62.2,29.84,WNW,294,0.0,0.0,91,0.00,,,0.00,meteohub,2013-06-04 03:11:00,
2013-06-03 23:16:00,64.8,61.5,29.84,WNW,294,0.0,0.0,89,0.00,,,0.00,meteohub,2013-06-04 03:16:00,
2013-06-03 23:21:00,64.8,61.2,29.84,WNW,294,0.0,0.0,88,0.00,,,0.00,meteohub,2013-06-04 03:21:00,
2013-06-03 23:27:00,64.6,59.9,29.84,WNW,294,0.0,0.0,85,0.00,,,0.00,meteohub,2013-06-04 03:27:00,
2013-06-03 23:32:00,64.4,58.8,29.85,WNW,294,0.0,0.0,82,0.00,,,0.00,meteohub,2013-06-04 03:32:00,
2013-06-03 23:37:00,64.2,58.6,29.85,WNW,294,0.0,0.0,82,0.00,,,0.00,meteohub,2013-06-04 03:37:00,
2013-06-03 23:42:00,64.2,57.9,29.85,WNW,294,0.0,0.0,80,0.00,,,0.00,meteohub,2013-06-04 03:42:00,
2013-06-03 23:47:00,64.0,57.7,29.85,WNW,294,0.0,0.0,80,0.00,,,0.00,meteohub,2013-06-04 03:47:00,
2013-06-03 23:52:00,63.9,57.6,29.85,WNW,294,0.0,0.0,80,0.00,,,0.00,meteohub,2013-06-04 03:52:00,
2013-06-03 23:57:00,63.7,57.0,29.85,WNW,294,0.0,0.0,79,0.00,,,0.00,meteohub,2013-06-04 03:57:00,